Mc Camey, Texas
Current Conditions -  °F | °C
As of 8:53 AM on Thursday 23 Oct 2014 (Local Time) from KODO Reporting Station
Moderate Fog Moderate Fog  
Wind Chill: 58°   Ceiling: 200
Heat Index: 58°   Visibility: 0.25mi
Dew Point: 57°   Wind: 7mph
Humidity: 97%   Direction: 190°S
Pressure: 30.15"   Gusts: NA
Location:  31.3328°N, 102.213°W
Report Text: KODO 231353Z AUTO 19006KT 1/4SM FG VV002 14/14 A3015 RMK AO2 SLP182 T01440139
Loading
Personal Weather Stations






























Interactive Weather Map
Tropical Storm Tracking
New forecast layout! Learn more

10-Day Weather Forecast

Advertisements
Track Severe Weather on mobile